Mahshahr Airport

Airport
ICAO code: 
OIAM
IATA Code: 
MRX
Summary
ICAO Region: 
MID
Territory: 
Location: 
Bandar Mahshahr, Khuzestan Province
Serving: 
Bandar Mashahr
Elevation: 
8 ft
Coordinates: 
Aerial View: 
30° 32' 58.837" N, 49° 9' 10.926" E
Metar
Observation
OIAM 262000Z 31008KT 4000 DU NSC 32/13 Q0999
Station
Bandar Mahshahr / Mahshahr
Date/Time
2022-06-26 20:00:00
Wind direction
310°
Wind speed
08 kts
Lowest cloud amount
nil significant cloud
Temperature
32°C
Dew point
13°C
Humidity
31%
QNH
999 hPa
Weather condition
n/a

Airport serving the city of Bandar Mahshahr, Iran

Climatology

Warm Desert climate (Köppen climate classification BWh).

Runways

Designator Length Width Surface Rops
14/32 2705 45 ASP No/No
Airport map: 
Aerial View: 

SKYbrary Partners:

Safety knowledge contributed by: